createdAt,value
2018-03-11T00:00:05.636Z,89.59
2018-03-11T00:01:05.596Z,89.78
2018-03-11T00:02:05.593Z,89.59
2018-03-11T00:03:05.571Z,90.07
2018-03-11T00:04:05.563Z,89.69
2018-03-11T00:05:05.571Z,89.78
2018-03-11T00:06:06.389Z,89.78
2018-03-11T00:07:05.526Z,89.97
2018-03-11T00:08:05.525Z,89.97
2018-03-11T00:09:05.511Z,89.59
2018-03-11T00:10:05.565Z,89.59
2018-03-11T00:11:05.525Z,89.59
2018-03-11T00:12:05.473Z,90.07
2018-03-11T00:13:05.462Z,90.07
2018-03-11T00:14:05.449Z,89.88
2018-03-11T00:15:05.440Z,89.97
2018-03-11T00:16:05.493Z,89.78
2018-03-11T00:17:05.413Z,89.97
2018-03-11T00:18:05.408Z,90.26
2018-03-11T00:19:05.394Z,90.26
2018-03-11T00:20:05.385Z,89.97
2018-03-11T00:21:05.368Z,89.88
2018-03-11T00:22:05.415Z,90.26
2018-03-11T00:23:05.346Z,90.45
2018-03-11T00:24:05.342Z,90.36
2018-03-11T00:25:05.320Z,90.45
2018-03-11T00:26:05.317Z,90.55
2018-03-11T00:27:05.342Z,90.55
2018-03-11T00:28:05.300Z,90.45
2018-03-11T00:29:05.282Z,90.17
2018-03-11T00:30:05.264Z,89.97
2018-03-11T00:31:05.249Z,90.55
2018-03-11T00:32:05.251Z,90.64
2018-03-11T00:33:05.294Z,90.55
2018-03-11T00:34:05.245Z,90.93
2018-03-11T00:35:05.218Z,90.73
2018-03-11T00:36:05.212Z,90.73
2018-03-11T00:37:05.180Z,90.45
2018-03-11T00:38:05.189Z,90.55
2018-03-11T00:39:05.207Z,90.36
2018-03-11T00:40:05.169Z,90.73
2018-03-11T00:41:05.136Z,90.83
2018-03-11T00:42:05.138Z,90.93
2018-03-11T00:43:05.157Z,91.02
2018-03-11T00:44:05.109Z,90.93
2018-03-11T00:45:05.159Z,91.12
2018-03-11T00:46:05.100Z,90.83
2018-03-11T00:47:05.104Z,90.93
2018-03-11T00:48:05.057Z,90.83
2018-03-11T00:49:05.056Z,90.93
2018-03-11T00:50:05.056Z,90.93
2018-03-11T00:51:05.071Z,90.73
2018-03-11T00:52:05.033Z,90.50
2018-03-11T00:53:05.019Z,91.17
2018-03-11T00:54:04.997Z,91.02
2018-03-11T00:55:05.062Z,91.02
2018-03-11T00:56:04.990Z,91.12
2018-03-11T00:57:04.988Z,90.93
2018-03-11T00:58:04.962Z,91.12
2018-03-11T00:59:04.936Z,90.73
2018-03-11T01:00:04.963Z,90.83
2018-03-11T01:01:04.993Z,90.93
2018-03-11T01:02:04.909Z,91.12
2018-03-11T01:03:04.907Z,91.12
2018-03-11T01:04:04.884Z,91.12
2018-03-11T01:05:04.914Z,91.12
2018-03-11T01:06:04.879Z,91.12
2018-03-11T01:07:04.864Z,90.88
2018-03-11T01:08:04.883Z,90.93
2018-03-11T01:09:04.832Z,90.93
2018-03-11T01:10:04.861Z,91.07
2018-03-11T01:11:04.813Z,91.12
2018-03-11T01:12:04.806Z,91.12
2018-03-11T01:13:04.787Z,91.12
2018-03-11T01:14:04.845Z,90.93
2018-03-11T01:15:04.770Z,90.79
2018-03-11T01:16:04.742Z,90.64
2018-03-11T01:17:04.736Z,90.55
2018-03-11T01:18:04.760Z,90.93
2018-03-11T01:19:04.717Z,90.73
2018-03-11T01:20:04.883Z,90.59
2018-03-11T01:21:04.704Z,91.12
2018-03-11T01:22:04.692Z,91.12
2018-03-11T01:23:04.685Z,90.55
2018-03-11T01:24:04.665Z,90.55
2018-03-11T01:25:04.716Z,90.31
2018-03-11T01:26:04.638Z,90.50
2018-03-11T01:27:04.626Z,91.31
2018-03-11T01:28:04.628Z,90.93
2018-03-11T01:29:04.605Z,90.88
2018-03-11T01:30:04.601Z,91.07
2018-03-11T01:31:04.625Z,91.27
2018-03-11T01:32:04.613Z,90.50
2018-03-11T01:33:04.563Z,90.79
2018-03-11T01:34:04.571Z,90.69
2018-03-11T01:35:04.561Z,90.98
2018-03-11T01:36:05.416Z,90.41
2018-03-11T01:37:04.558Z,90.69
2018-03-11T01:38:04.548Z,91.27
2018-03-11T01:39:04.554Z,90.59
2018-03-11T01:40:05.372Z,90.88
2018-03-11T01:41:04.480Z,90.79
2018-03-11T01:42:04.512Z,91.07
2018-03-11T01:43:04.458Z,90.98
2018-03-11T01:44:04.430Z,91.07
2018-03-11T01:45:06.395Z,90.50
2018-03-11T01:46:06.369Z,91.07
2018-03-11T01:47:05.489Z,90.88
2018-03-11T01:48:04.421Z,91.27
2018-03-11T01:49:04.483Z,91.27
2018-03-11T01:50:04.403Z,90.88
2018-03-11T01:51:04.468Z,91.27
2018-03-11T01:52:04.517Z,91.27
2018-03-11T01:53:04.455Z,91.27
2018-03-11T01:54:04.333Z,91.27
2018-03-11T01:55:04.330Z,91.46
2018-03-11T01:56:04.328Z,91.55
2018-03-11T01:57:04.301Z,91.07
2018-03-11T01:58:04.869Z,91.36
2018-03-11T01:59:04.292Z,91.07
2018-03-11T02:00:04.326Z,91.07
2018-03-11T02:01:04.271Z,91.07
2018-03-11T02:02:04.241Z,91.46
2018-03-11T02:03:04.307Z,91.36
2018-03-11T02:04:04.536Z,91.46
2018-03-11T02:05:04.191Z,90.59
2018-03-11T02:06:04.261Z,90.88
2018-03-11T02:07:04.177Z,91.46
2018-03-11T02:08:04.184Z,91.46
2018-03-11T02:09:04.141Z,91.46
2018-03-11T02:10:04.143Z,91.27
2018-03-11T02:11:04.136Z,91.55
2018-03-11T02:12:04.128Z,92.03
2018-03-11T02:13:04.102Z,91.64
2018-03-11T02:14:04.135Z,91.83
2018-03-11T02:15:08.430Z,91.46
2018-03-11T02:16:04.079Z,91.55
2018-03-11T02:17:04.056Z,91.55
2018-03-11T02:18:04.130Z,91.74
2018-03-11T02:19:04.058Z,91.74
2018-03-11T02:20:04.038Z,91.64
2018-03-11T02:21:04.016Z,91.74
2018-03-11T02:22:04.006Z,91.64
2018-03-11T02:23:03.986Z,91.83
2018-03-11T02:24:03.998Z,91.64
2018-03-11T02:25:03.970Z,91.74
2018-03-11T02:26:04.004Z,91.83
2018-03-11T02:27:03.999Z,91.83
2018-03-11T02:28:03.936Z,91.64
2018-03-11T02:29:03.954Z,91.64
2018-03-11T02:30:03.905Z,91.74
2018-03-11T02:31:03.913Z,91.64
2018-03-11T02:32:03.889Z,91.93
2018-03-11T02:33:03.928Z,91.46
2018-03-11T02:34:03.885Z,91.36
2018-03-11T02:35:03.870Z,91.46
2018-03-11T02:36:03.841Z,91.46
2018-03-11T02:37:03.837Z,91.64
2018-03-11T02:38:03.838Z,91.93
2018-03-11T02:39:04.397Z,92.03
2018-03-11T02:40:03.804Z,92.03
2018-03-11T02:41:03.808Z,92.50
2018-03-11T02:42:04.377Z,92.60
2018-03-11T02:43:03.755Z,92.32
2018-03-11T02:44:03.833Z,92.12
2018-03-11T02:45:03.760Z,92.22
2018-03-11T02:46:03.733Z,92.32
2018-03-11T02:47:03.773Z,92.22
2018-03-11T02:48:03.722Z,92.32
2018-03-11T02:49:03.716Z,92.32
2018-03-11T02:50:03.688Z,92.12
2018-03-11T02:51:03.657Z,92.22
2018-03-11T02:52:03.649Z,92.12
2018-03-11T02:53:03.645Z,92.03
2018-03-11T02:54:04.366Z,92.22
2018-03-11T02:55:03.746Z,92.12
2018-03-11T02:56:03.629Z,92.03
2018-03-11T02:57:03.586Z,91.83
2018-03-11T02:58:03.587Z,91.93
2018-03-11T02:59:03.566Z,91.83
2018-03-11T03:00:03.564Z,91.93
2018-03-11T03:01:03.569Z,92.03
2018-03-11T03:02:03.530Z,92.41
2018-03-11T03:03:03.578Z,92.98
2018-03-11T03:04:03.518Z,92.88
2018-03-11T03:05:03.498Z,92.69
2018-03-11T03:06:03.508Z,92.79
2018-03-11T03:07:03.515Z,92.55
2018-03-11T03:08:03.467Z,92.55
2018-03-11T03:09:03.448Z,92.69
2018-03-11T03:10:03.434Z,92.79
2018-03-11T03:11:03.423Z,92.55
2018-03-11T03:12:03.453Z,92.36
2018-03-11T03:13:03.442Z,92.74
2018-03-11T03:14:03.391Z,92.55
2018-03-11T03:15:03.385Z,92.60
2018-03-11T03:16:03.371Z,92.55
2018-03-11T03:17:03.418Z,92.65
2018-03-11T03:18:03.347Z,92.74
2018-03-11T03:19:03.338Z,92.36
2018-03-11T03:20:03.312Z,92.55
2018-03-11T03:21:03.330Z,92.36
2018-03-11T03:22:03.362Z,92.79
2018-03-11T03:23:03.297Z,93.03
2018-03-11T03:24:03.267Z,92.84
2018-03-11T03:25:03.257Z,92.74
2018-03-11T03:26:03.271Z,92.84
2018-03-11T03:27:03.236Z,92.84
2018-03-11T03:28:03.255Z,92.46
2018-03-11T03:29:03.212Z,92.93
2018-03-11T03:30:03.204Z,92.36
2018-03-11T03:31:03.192Z,92.27
2018-03-11T03:32:03.203Z,92.46
2018-03-11T03:33:03.276Z,92.08
2018-03-11T03:34:03.199Z,92.08
2018-03-11T03:35:03.143Z,92.17
2018-03-11T03:36:03.148Z,92.17
2018-03-11T03:37:03.105Z,92.17
2018-03-11T03:38:03.115Z,92.17
2018-03-11T03:39:03.096Z,92.08
2018-03-11T03:40:03.072Z,92.08
2018-03-11T03:41:03.066Z,92.84
2018-03-11T03:42:03.077Z,92.65
2018-03-11T03:43:03.093Z,92.74
2018-03-11T03:44:03.043Z,92.65
2018-03-11T03:45:03.024Z,92.36
2018-03-11T03:46:02.990Z,92.36
2018-03-11T03:47:03.004Z,92.55
2018-03-11T03:48:02.974Z,92.74
2018-03-11T03:49:02.978Z,92.65
2018-03-11T03:50:02.956Z,92.65
2018-03-11T03:51:02.946Z,92.65
2018-03-11T03:52:02.937Z,92.74
2018-03-11T03:53:02.927Z,92.93
2018-03-11T03:54:02.938Z,92.65
2018-03-11T03:55:07.156Z,92.65
2018-03-11T03:56:02.886Z,92.65
2018-03-11T03:57:02.880Z,92.36
2018-03-11T03:58:02.892Z,92.36
2018-03-11T03:59:02.859Z,92.36
2018-03-11T04:00:02.832Z,93.03
2018-03-11T04:01:02.838Z,93.03
2018-03-11T04:02:02.813Z,92.84
2018-03-11T04:03:02.794Z,92.74
2018-03-11T04:04:02.779Z,92.93
2018-03-11T04:05:02.768Z,92.55
2018-03-11T04:06:02.779Z,92.74
2018-03-11T04:07:02.771Z,92.93
2018-03-11T04:08:02.726Z,93.03
2018-03-11T04:09:02.733Z,93.03
2018-03-11T04:10:02.705Z,92.74
2018-03-11T04:11:02.731Z,92.84
2018-03-11T04:12:02.674Z,93.03
2018-03-11T04:13:02.676Z,92.93
2018-03-11T04:14:02.649Z,92.74
2018-03-11T04:15:02.647Z,92.84
2018-03-11T04:16:02.718Z,92.84
2018-03-11T04:17:02.640Z,92.36
2018-03-11T04:18:02.609Z,92.55
2018-03-11T04:19:02.602Z,92.55
2018-03-11T04:20:02.614Z,92.55
2018-03-11T04:21:02.599Z,92.65
2018-03-11T04:22:02.918Z,92.36
2018-03-11T04:23:02.544Z,92.74
2018-03-11T04:24:02.531Z,92.36
2018-03-11T04:25:02.528Z,92.55
2018-03-11T04:26:02.505Z,92.74
2018-03-11T04:27:02.500Z,92.55
2018-03-11T04:28:02.517Z,92.65
2018-03-11T04:29:02.472Z,92.74
2018-03-11T04:30:02.462Z,92.36
2018-03-11T04:31:02.457Z,92.36
2018-03-11T04:32:02.474Z,92.84
2018-03-11T04:33:02.428Z,92.74
2018-03-11T04:34:02.483Z,92.55
2018-03-11T04:35:02.385Z,92.93
2018-03-11T04:36:02.375Z,92.65
2018-03-11T04:37:02.374Z,92.93
2018-03-11T04:38:02.347Z,93.03
2018-03-11T04:39:02.343Z,93.03
2018-03-11T04:40:02.350Z,92.36
2018-03-11T04:41:02.317Z,92.36
2018-03-11T04:42:02.304Z,92.55
2018-03-11T04:43:02.302Z,92.55
2018-03-11T04:44:02.273Z,92.74
2018-03-11T04:45:02.295Z,92.93
2018-03-11T04:46:02.248Z,92.84
2018-03-11T04:47:02.239Z,92.84
2018-03-11T04:48:02.278Z,92.74
2018-03-11T04:49:02.208Z,93.32
2018-03-11T04:50:02.201Z,93.32
2018-03-11T04:51:02.184Z,93.22
2018-03-11T04:52:02.183Z,93.12
2018-03-11T04:53:02.160Z,92.79
2018-03-11T04:54:02.221Z,92.55
2018-03-11T04:55:02.136Z,92.41
2018-03-11T04:56:02.121Z,92.32
2018-03-11T04:57:02.111Z,92.69
2018-03-11T04:58:02.108Z,92.98
2018-03-11T04:59:02.094Z,92.89
2018-03-11T05:00:02.105Z,92.50
2018-03-11T05:01:02.067Z,92.89
2018-03-11T05:02:02.054Z,92.41
2018-03-11T05:03:02.037Z,93.17
2018-03-11T05:04:02.024Z,93.17
2018-03-11T05:05:02.071Z,92.79
2018-03-11T05:06:01.997Z,92.41
2018-03-11T05:07:01.982Z,93.17
2018-03-11T05:08:01.972Z,93.08
2018-03-11T05:09:01.963Z,93.08
2018-03-11T05:10:01.952Z,93.08
2018-03-11T05:11:01.967Z,93.27
2018-03-11T05:12:01.907Z,93.17
2018-03-11T05:13:01.899Z,92.79
2018-03-11T05:14:01.891Z,93.27
2018-03-11T05:15:01.882Z,93.27
2018-03-11T05:16:01.901Z,92.89
2018-03-11T05:17:01.856Z,93.08
2018-03-11T05:18:01.842Z,93.08
2018-03-11T05:19:01.828Z,92.89
2018-03-11T05:20:01.817Z,93.65
2018-03-11T05:21:01.858Z,93.27
2018-03-11T05:22:01.784Z,93.08
2018-03-11T05:23:01.772Z,93.65
2018-03-11T05:24:01.769Z,93.46
2018-03-11T05:25:01.748Z,93.37
2018-03-11T05:26:01.737Z,93.17
2018-03-11T05:27:01.756Z,93.65
2018-03-11T05:28:01.713Z,93.37
2018-03-11T05:29:01.695Z,93.55
2018-03-11T05:30:01.683Z,93.27
2018-03-11T05:31:01.676Z,93.46
2018-03-11T05:32:01.703Z,93.17
2018-03-11T05:33:01.649Z,93.27
2018-03-11T05:34:01.633Z,93.08
2018-03-11T05:35:01.612Z,93.08
2018-03-11T05:36:01.604Z,93.27
2018-03-11T05:37:01.584Z,93.37
2018-03-11T05:38:01.589Z,93.27
2018-03-11T05:39:01.565Z,93.08
2018-03-11T05:40:01.550Z,93.65
2018-03-11T05:41:01.535Z,93.46
2018-03-11T05:42:01.527Z,93.22
2018-03-11T05:43:01.541Z,93.27
2018-03-11T05:44:01.495Z,93.22
2018-03-11T05:45:01.489Z,93.22
2018-03-11T05:46:01.484Z,93.22
2018-03-11T05:47:01.456Z,93.03
2018-03-11T05:48:01.473Z,93.60
2018-03-11T05:49:01.441Z,93.41
2018-03-11T05:50:01.458Z,93.51
2018-03-11T05:51:01.417Z,93.89
2018-03-11T05:52:01.397Z,93.60
2018-03-11T05:53:01.379Z,93.70
2018-03-11T05:54:01.408Z,93.51
2018-03-11T05:55:01.614Z,93.51
2018-03-11T05:56:01.352Z,93.41
2018-03-11T05:57:01.329Z,93.79
2018-03-11T05:58:01.312Z,93.70
2018-03-11T05:59:01.305Z,93.70
2018-03-11T06:00:01.292Z,93.60
2018-03-11T06:01:01.278Z,93.60
2018-03-11T06:02:01.263Z,93.98
2018-03-11T06:03:01.245Z,93.60
2018-03-11T06:04:01.235Z,93.51
2018-03-11T06:05:01.233Z,93.51
2018-03-11T06:06:01.209Z,93.51
2018-03-11T06:07:01.206Z,94.27
2018-03-11T06:08:01.185Z,94.17
2018-03-11T06:09:01.173Z,93.98
2018-03-11T06:10:01.215Z,94.08
2018-03-11T06:11:01.148Z,93.60
2018-03-11T06:12:01.142Z,93.70
2018-03-11T06:13:01.111Z,93.41
2018-03-11T06:14:01.107Z,93.98
2018-03-11T06:15:01.093Z,93.60
2018-03-11T06:16:01.145Z,93.60
2018-03-11T06:17:01.069Z,93.79
2018-03-11T06:18:01.050Z,93.51
2018-03-11T06:19:01.042Z,93.41
2018-03-11T06:20:01.021Z,93.22
2018-03-11T06:21:01.002Z,93.41
2018-03-11T06:22:01.050Z,93.41
2018-03-11T06:23:00.985Z,93.70
2018-03-11T06:24:00.965Z,93.60
2018-03-11T06:25:00.967Z,93.51
2018-03-11T06:26:00.939Z,93.70
2018-03-11T06:27:00.933Z,93.51
2018-03-11T06:28:00.924Z,93.79
2018-03-11T06:29:00.900Z,93.89
2018-03-11T06:30:00.886Z,93.41
2018-03-11T06:31:00.872Z,93.70
2018-03-11T06:32:00.859Z,93.89
2018-03-11T06:33:00.874Z,93.70
2018-03-11T06:34:00.831Z,93.89
2018-03-11T06:35:00.840Z,93.70
2018-03-11T06:36:00.805Z,93.89
2018-03-11T06:37:00.799Z,93.32
2018-03-11T06:38:00.837Z,93.22
2018-03-11T06:39:00.783Z,93.89
2018-03-11T06:40:00.750Z,93.79
2018-03-11T06:41:00.748Z,93.89
2018-03-11T06:42:00.734Z,93.55
2018-03-11T06:43:00.722Z,93.41
2018-03-11T06:44:00.742Z,93.60
2018-03-11T06:45:00.698Z,93.22
2018-03-11T06:46:00.671Z,93.22
2018-03-11T06:47:00.667Z,93.32
2018-03-11T06:48:00.646Z,93.37
2018-03-11T06:49:00.640Z,93.03
2018-03-11T06:50:00.628Z,93.22
2018-03-11T06:51:00.672Z,93.32
2018-03-11T06:52:00.598Z,93.08
2018-03-11T06:53:00.587Z,93.27
2018-03-11T06:54:00.562Z,93.27
2018-03-11T06:55:00.574Z,93.46
2018-03-11T06:56:00.543Z,93.27
2018-03-11T06:57:00.547Z,93.46
2018-03-11T06:58:00.510Z,93.37
2018-03-11T06:59:00.505Z,93.46
2018-03-11T07:00:00.510Z,93.37
2018-03-11T07:01:00.484Z,93.55
2018-03-11T07:02:00.475Z,93.37
2018-03-11T07:03:00.493Z,93.37
2018-03-11T07:04:00.452Z,93.55
2018-03-11T07:05:00.432Z,93.55
2018-03-11T07:06:00.413Z,93.17
2018-03-11T07:07:00.420Z,93.65
2018-03-11T07:08:00.444Z,93.65
2018-03-11T07:09:00.373Z,93.55
2018-03-11T07:10:00.371Z,93.37
2018-03-11T07:11:00.350Z,93.27
2018-03-11T07:12:00.336Z,92.89
2018-03-11T07:13:00.330Z,93.17
2018-03-11T07:14:00.385Z,93.27
2018-03-11T07:15:00.305Z,93.17
2018-03-11T07:16:00.286Z,93.27
2018-03-11T07:17:00.277Z,92.41
2018-03-11T07:18:00.273Z,92.79
2018-03-11T07:19:00.272Z,92.89
2018-03-11T07:20:00.244Z,92.22
2018-03-11T07:21:00.228Z,92.60
2018-03-11T07:22:00.216Z,92.69
2018-03-11T07:23:00.208Z,92.32
2018-03-11T07:24:00.204Z,92.60
2018-03-11T07:25:00.175Z,92.60
2018-03-11T07:26:00.167Z,92.55
2018-03-11T07:27:00.160Z,92.50
2018-03-11T07:28:00.135Z,92.46
2018-03-11T07:29:00.163Z,92.74
2018-03-11T07:30:00.119Z,92.65
2018-03-11T07:31:00.107Z,92.74
2018-03-11T07:32:00.087Z,92.74
2018-03-11T07:33:00.151Z,92.93
2018-03-11T07:34:00.061Z,92.65
2018-03-11T07:35:00.053Z,92.65
2018-03-11T07:36:00.080Z,92.74
2018-03-11T07:37:00.034Z,92.55
2018-03-11T07:38:00.020Z,92.36
2018-03-11T07:39:00.016Z,92.84
2018-03-11T07:39:59.996Z,92.27
2018-03-11T07:40:59.979Z,91.88
2018-03-11T07:42:00.027Z,92.17
2018-03-11T07:42:59.964Z,91.50
2018-03-11T07:43:59.942Z,92.36
2018-03-11T07:44:59.928Z,91.60
2018-03-11T07:45:59.922Z,91.83
2018-03-11T07:46:59.911Z,91.74
2018-03-11T07:47:59.966Z,91.64
2018-03-11T07:49:01.444Z,91.64
2018-03-11T07:49:59.868Z,91.93
2018-03-11T07:50:59.874Z,91.27
2018-03-11T07:51:59.862Z,91.46
2018-03-11T07:52:59.932Z,91.07
2018-03-11T07:53:59.954Z,91.27
2018-03-11T07:55:00.536Z,90.98
2018-03-11T07:55:59.806Z,90.98
2018-03-11T07:56:59.795Z,91.27
2018-03-11T07:57:59.782Z,90.98
2018-03-11T07:58:59.811Z,90.79
2018-03-11T07:59:59.753Z,90.69
2018-03-11T08:00:59.748Z,90.59
2018-03-11T08:01:59.740Z,90.69
2018-03-11T08:02:59.714Z,91.07
2018-03-11T08:03:59.742Z,91.07
2018-03-11T08:04:59.965Z,90.69
2018-03-11T08:05:59.693Z,90.50
2018-03-11T08:06:59.672Z,90.69
2018-03-11T08:07:59.669Z,90.88
2018-03-11T08:08:59.720Z,90.88
2018-03-11T08:09:59.644Z,90.83
2018-03-11T08:10:59.692Z,90.50
2018-03-11T08:11:59.977Z,90.41
2018-03-11T08:12:59.615Z,90.73
2018-03-11T08:13:59.608Z,90.73
2018-03-11T08:15:00.587Z,90.45
2018-03-11T08:15:59.577Z,90.36
2018-03-11T08:16:59.560Z,90.64
2018-03-11T08:17:59.552Z,90.64
2018-03-11T08:18:59.534Z,90.45
2018-03-11T08:19:59.524Z,90.45
2018-03-11T08:20:59.526Z,90.17
2018-03-11T08:21:59.502Z,90.26
2018-03-11T08:22:59.497Z,89.97
2018-03-11T08:23:59.482Z,90.26
2018-03-11T08:24:59.484Z,89.59
2018-03-11T08:25:59.504Z,89.69
2018-03-11T08:26:59.487Z,89.92
2018-03-11T08:27:59.448Z,89.64
2018-03-11T08:28:59.438Z,89.06
2018-03-11T08:29:59.423Z,88.97
2018-03-11T08:30:59.428Z,88.87
2018-03-11T08:31:59.396Z,88.49
2018-03-11T08:32:59.514Z,88.59
2018-03-11T08:33:59.385Z,89.35
2018-03-11T08:34:59.665Z,88.97
2018-03-11T08:35:59.624Z,89.06
2018-03-11T08:36:59.348Z,89.25
2018-03-11T08:37:59.336Z,88.68
2018-03-11T08:38:59.344Z,89.06
2018-03-11T08:39:59.326Z,89.06
2018-03-11T08:40:59.345Z,89.16
2018-03-11T08:41:59.294Z,89.16
2018-03-11T08:42:59.297Z,88.78
2018-03-11T08:43:59.347Z,89.25
2018-03-11T08:44:59.263Z,89.16
2018-03-11T08:45:59.264Z,89.06
2018-03-11T08:46:59.254Z,89.16
2018-03-11T08:47:59.243Z,88.87
2018-03-11T08:48:59.233Z,88.87
2018-03-11T08:49:59.241Z,88.73
2018-03-11T08:50:59.207Z,88.82
2018-03-11T08:51:59.202Z,88.73
2018-03-11T08:52:59.254Z,88.92
2018-03-11T08:53:59.223Z,87.96
2018-03-11T08:54:59.218Z,88.25
2018-03-11T08:55:59.175Z,87.20
2018-03-11T08:56:59.161Z,87.48
2018-03-11T08:57:59.149Z,87.39
2018-03-11T08:58:59.130Z,87.10
2018-03-11T08:59:59.368Z,87.68
2018-03-11T09:00:59.117Z,87.29
2018-03-11T09:01:59.109Z,87.48
2018-03-11T09:02:59.101Z,87.48
2018-03-11T09:03:59.154Z,87.39
2018-03-11T09:04:59.192Z,87.48
2018-03-11T09:05:59.077Z,87.58
2018-03-11T09:06:59.053Z,87.77
2018-03-11T09:07:59.043Z,87.58
2018-03-11T09:08:59.058Z,87.58
2018-03-11T09:09:59.072Z,87.68
2018-03-11T09:10:59.063Z,87.20
2018-03-11T09:11:59.012Z,87.39
2018-03-11T09:12:59.033Z,86.91
2018-03-11T09:13:58.990Z,87.39
2018-03-11T09:14:58.992Z,86.43
2018-03-11T09:15:59.016Z,86.72
2018-03-11T09:16:59.021Z,86.72
2018-03-11T09:17:58.955Z,86.53
2018-03-11T09:18:58.951Z,86.82
2018-03-11T09:19:58.939Z,86.91
2018-03-11T09:20:58.922Z,87.39
2018-03-11T09:21:58.947Z,87.58
2018-03-11T09:22:58.934Z,87.39
2018-03-11T09:23:59.142Z,87.68
2018-03-11T09:24:59.029Z,87.20
2018-03-11T09:25:58.884Z,87.58
2018-03-11T09:26:58.883Z,87.87
2018-03-11T09:27:58.914Z,87.29
2018-03-11T09:28:58.852Z,87.29
2018-03-11T09:29:58.966Z,87.48
2018-03-11T09:30:58.887Z,87.48
2018-03-11T09:31:59.018Z,87.39
2018-03-11T09:32:59.095Z,87.39
2018-03-11T09:33:58.970Z,87.77
2018-03-11T09:35:08.145Z,87.29
2018-03-11T09:35:58.882Z,87.39
2018-03-11T09:36:58.846Z,87.96
2018-03-11T09:37:58.761Z,87.87
2018-03-11T09:38:58.932Z,87.77
2018-03-11T09:39:59.093Z,87.58
2018-03-11T09:40:58.798Z,87.48
2018-03-11T09:41:58.906Z,87.58
2018-03-11T09:42:58.720Z,87.58
2018-03-11T09:43:58.744Z,87.96
2018-03-11T09:44:59.132Z,87.87
2018-03-11T09:46:00.774Z,87.77
2018-03-11T09:47:22.000Z,87.96
2018-03-11T09:47:58.899Z,88.06
2018-03-11T09:48:59.052Z,88.25
2018-03-11T09:49:59.859Z,88.15
2018-03-11T09:50:58.735Z,87.68
2018-03-11T09:52:06.040Z,87.48
2018-03-11T09:52:58.659Z,87.77
2018-03-11T09:53:58.652Z,87.35
2018-03-11T09:54:58.611Z,87.25
2018-03-11T09:55:58.582Z,87.44
2018-03-11T09:56:58.668Z,87.63
2018-03-11T09:57:58.573Z,87.63
2018-03-11T09:58:58.626Z,87.35
2018-03-11T09:59:58.551Z,88.01
2018-03-11T10:00:58.542Z,88.01
2018-03-11T10:01:58.525Z,87.82
2018-03-11T10:02:58.516Z,88.11
2018-03-11T10:03:58.508Z,87.73
2018-03-11T10:04:58.507Z,88.49
2018-03-11T10:05:58.496Z,88.78
2018-03-11T10:06:58.475Z,88.49
2018-03-11T10:07:58.464Z,88.40
2018-03-11T10:08:58.457Z,88.78
2018-03-11T10:09:58.473Z,88.87
2018-03-11T10:10:58.496Z,88.87
2018-03-11T10:11:58.420Z,88.78
2018-03-11T10:12:58.415Z,88.82
2018-03-11T10:13:58.408Z,89.39
2018-03-11T10:14:58.394Z,89.01
2018-03-11T10:15:58.378Z,88.63
2018-03-11T10:16:58.385Z,88.73
2018-03-11T10:17:58.357Z,88.34
2018-03-11T10:18:58.357Z,88.82
2018-03-11T10:19:58.344Z,88.92
2018-03-11T10:20:58.405Z,88.15
2018-03-11T10:21:58.325Z,88.15
2018-03-11T10:22:58.322Z,87.68
2018-03-11T10:23:58.313Z,87.82
2018-03-11T10:24:58.301Z,87.68
2018-03-11T10:25:58.288Z,87.87
2018-03-11T10:26:58.276Z,87.43
2018-03-11T10:27:58.268Z,87.43
2018-03-11T10:28:58.267Z,87.43
2018-03-11T10:29:58.254Z,87.15
2018-03-11T10:30:58.274Z,87.43
2018-03-11T10:31:58.229Z,87.72
2018-03-11T10:32:58.261Z,87.10
2018-03-11T10:33:58.211Z,86.96
2018-03-11T10:34:58.201Z,87.01
2018-03-11T10:35:58.200Z,86.82
2018-03-11T10:36:58.183Z,86.72
2018-03-11T10:37:58.204Z,86.57
2018-03-11T10:38:58.165Z,86.53
2018-03-11T10:39:58.151Z,86.82
2018-03-11T10:40:58.146Z,86.72
2018-03-11T10:41:58.135Z,86.82
2018-03-11T10:42:58.156Z,86.57
2018-03-11T10:43:58.125Z,87.34
2018-03-11T10:44:58.110Z,87.20
2018-03-11T10:45:58.100Z,86.53
2018-03-11T10:46:58.092Z,87.20
2018-03-11T10:47:58.082Z,87.20
2018-03-11T10:48:58.096Z,87.58
2018-03-11T10:49:58.064Z,87.68
2018-03-11T10:50:58.078Z,87.20
2018-03-11T10:51:58.045Z,87.39
2018-03-11T10:52:58.036Z,86.91
2018-03-11T10:53:58.037Z,87.01
2018-03-11T10:54:58.065Z,86.91
2018-03-11T10:55:58.005Z,87.77
2018-03-11T10:56:57.990Z,87.53
2018-03-11T10:57:57.996Z,87.29
2018-03-11T10:58:57.975Z,87.62
2018-03-11T10:59:57.963Z,87.62
2018-03-11T11:00:57.969Z,86.86
2018-03-11T11:01:57.940Z,87.05
2018-03-11T11:02:57.939Z,87.15
2018-03-11T11:03:57.924Z,87.10
2018-03-11T11:04:57.914Z,87.20
2018-03-11T11:05:57.944Z,86.72
2018-03-11T11:06:57.930Z,86.91
2018-03-11T11:07:57.898Z,86.86
2018-03-11T11:08:57.880Z,86.96
2018-03-11T11:09:57.870Z,86.96
2018-03-11T11:10:57.858Z,86.76
2018-03-11T11:11:57.882Z,87.05
2018-03-11T11:12:57.892Z,86.96
2018-03-11T11:13:57.834Z,87.01
2018-03-11T11:14:57.823Z,87.01
2018-03-11T11:15:57.815Z,86.86
2018-03-11T11:16:57.805Z,86.57
2018-03-11T11:17:57.795Z,87.34
2018-03-11T11:18:57.811Z,87.62
2018-03-11T11:19:57.768Z,87.53
2018-03-11T11:20:57.765Z,87.62
2018-03-11T11:21:57.761Z,87.53
2018-03-11T11:22:57.749Z,87.29
2018-03-11T11:23:57.792Z,87.58
2018-03-11T11:24:57.717Z,87.24
2018-03-11T11:25:57.712Z,87.29
2018-03-11T11:26:57.713Z,87.58
2018-03-11T11:27:57.692Z,87.77
2018-03-11T11:28:57.686Z,87.82
2018-03-11T11:29:57.727Z,87.72
2018-03-11T11:30:57.681Z,88.01
2018-03-11T11:31:57.689Z,88.01
2018-03-11T11:32:58.343Z,87.91
2018-03-11T11:33:57.636Z,87.53
2018-03-11T11:34:58.742Z,87.62
2018-03-11T11:35:57.662Z,87.53
2018-03-11T11:36:57.639Z,87.62
2018-03-11T11:37:57.632Z,87.05
2018-03-11T11:38:57.596Z,87.53
2018-03-11T11:39:57.596Z,87.66
2018-03-11T11:40:57.585Z,87.76
2018-03-11T11:41:57.575Z,87.57
2018-03-11T11:42:57.629Z,87.57
2018-03-11T11:43:57.560Z,87.66
2018-03-11T11:44:58.714Z,87.38
2018-03-11T11:45:57.541Z,87.00
2018-03-11T11:46:57.538Z,87.19
2018-03-11T11:47:57.581Z,86.90
2018-03-11T11:48:57.518Z,86.94
2018-03-11T11:49:57.494Z,87.33
2018-03-11T11:50:57.493Z,86.47
2018-03-11T11:51:57.487Z,86.47
2018-03-11T11:52:57.472Z,86.66
2018-03-11T11:53:57.537Z,86.94
2018-03-11T11:54:57.464Z,86.04
2018-03-11T11:55:57.462Z,85.75
2018-03-11T11:56:57.437Z,85.46
2018-03-11T11:57:57.430Z,84.22
2018-03-11T11:58:57.426Z,84.22
2018-03-11T11:59:57.455Z,84.45
2018-03-11T12:00:57.427Z,83.97
2018-03-11T12:01:57.402Z,83.87
2018-03-11T12:02:57.413Z,83.59
2018-03-11T12:03:57.395Z,83.72
2018-03-11T12:04:57.383Z,83.82
2018-03-11T12:05:57.396Z,83.15
2018-03-11T12:06:57.384Z,82.57
2018-03-11T12:07:57.394Z,80.94
2018-03-11T12:08:57.370Z,81.04
2018-03-11T12:09:57.355Z,80.27
2018-03-11T12:10:57.355Z,79.60
2018-03-11T12:11:57.340Z,79.70
2018-03-11T12:12:57.397Z,79.64
2018-03-11T12:13:57.340Z,79.26
2018-03-11T12:14:57.389Z,79.55
2018-03-11T12:15:57.341Z,79.64
2018-03-11T12:16:57.327Z,78.78
2018-03-11T12:17:57.322Z,78.59
2018-03-11T12:18:57.377Z,78.11
2018-03-11T12:19:57.300Z,77.92
2018-03-11T12:20:57.303Z,78.40
2018-03-11T12:21:57.306Z,77.63
2018-03-11T12:22:57.298Z,76.96
2018-03-11T12:23:57.290Z,77.34
2018-03-11T12:24:57.323Z,77.44
2018-03-11T12:25:57.332Z,78.69
2018-03-11T12:26:57.265Z,77.63
2018-03-11T12:27:57.307Z,77.15
2018-03-11T12:28:57.262Z,76.57
2018-03-11T12:29:57.255Z,76.96
2018-03-11T12:30:57.242Z,77.34
2018-03-11T12:31:57.243Z,76.39
2018-03-11T12:32:57.250Z,77.06
2018-03-11T12:33:57.302Z,76.39
2018-03-11T12:34:57.236Z,75.23
2018-03-11T12:35:57.224Z,75.71
2018-03-11T12:36:57.993Z,76.00
2018-03-11T12:37:57.206Z,75.52
2018-03-11T12:38:57.197Z,76.19
2018-03-11T12:39:57.766Z,76.29
2018-03-11T12:40:57.204Z,75.81
2018-03-11T12:41:57.202Z,75.81
2018-03-11T12:42:57.187Z,76.29
2018-03-11T12:43:57.245Z,75.90
2018-03-11T12:44:59.495Z,76.19
2018-03-11T12:45:57.164Z,76.57
2018-03-11T12:46:57.164Z,76.57
2018-03-11T12:47:57.148Z,76.86
2018-03-11T12:48:57.144Z,76.90
2018-03-11T12:49:57.176Z,76.23
2018-03-11T12:50:57.144Z,75.85
2018-03-11T12:51:57.164Z,75.85